sensor_id;sensor_type;location;lat;lon;timestamp;pressure;altitude;pressure_sealevel;temperature;humidity
64632;BME280;58358;50.936;0.246;2023-03-13T00:00:47;99372.03;;;7.22;100.00
64632;BME280;58358;50.936;0.246;2023-03-13T00:03:12;99364.45;;;7.28;100.00
64632;BME280;58358;50.936;0.246;2023-03-13T00:05:38;99364.35;;;7.01;100.00
64632;BME280;58358;50.936;0.246;2023-03-13T00:08:03;99364.12;;;7.44;100.00
64632;BME280;58358;50.936;0.246;2023-03-13T00:10:29;99360.54;;;7.62;100.00
64632;BME280;58358;50.936;0.246;2023-03-13T00:12:54;99362.03;;;7.14;100.00
64632;BME280;58358;50.936;0.246;2023-03-13T00:15:19;99357.33;;;7.60;100.00
64632;BME280;58358;50.936;0.246;2023-03-13T00:17:45;99356.72;;;6.99;100.00
64632;BME280;58358;50.936;0.246;2023-03-13T00:20:11;99361.51;;;7.29;100.00
64632;BME280;58358;50.936;0.246;2023-03-13T00:22:35;99354.87;;;7.05;100.00
64632;BME280;58358;50.936;0.246;2023-03-13T00:25:01;99342.63;;;7.54;100.00
64632;BME280;58358;50.936;0.246;2023-03-13T00:27:26;99348.16;;;7.06;100.00
64632;BME280;58358;50.936;0.246;2023-03-13T00:29:51;99337.61;;;7.44;100.00
64632;BME280;58358;50.936;0.246;2023-03-13T00:32:17;99335.61;;;6.98;100.00
64632;BME280;58358;50.936;0.246;2023-03-13T00:34:42;99329.86;;;7.51;100.00
64632;BME280;58358;50.936;0.246;2023-03-13T00:37:07;99327.77;;;7.17;100.00
64632;BME280;58358;50.936;0.246;2023-03-13T00:39:33;99333.29;;;7.35;100.00
64632;BME280;58358;50.936;0.246;2023-03-13T00:41:58;99341.65;;;6.94;100.00
64632;BME280;58358;50.936;0.246;2023-03-13T00:44:23;99332.21;;;7.03;100.00
64632;BME280;58358;50.936;0.246;2023-03-13T00:46:49;99344.82;;;7.33;100.00
64632;BME280;58358;50.936;0.246;2023-03-13T00:49:15;99317.11;;;7.28;100.00
64632;BME280;58358;50.936;0.246;2023-03-13T00:51:41;99319.87;;;7.11;100.00
64632;BME280;58358;50.936;0.246;2023-03-13T00:54:06;99305.53;;;7.25;100.00
64632;BME280;58358;50.936;0.246;2023-03-13T00:56:31;99309.73;;;7.31;100.00
64632;BME280;58358;50.936;0.246;2023-03-13T00:58:58;99304.99;;;7.25;100.00
64632;BME280;58358;50.936;0.246;2023-03-13T01:01:24;99295.31;;;7.72;100.00
64632;BME280;58358;50.936;0.246;2023-03-13T01:03:50;99288.01;;;7.51;100.00
64632;BME280;58358;50.936;0.246;2023-03-13T01:06:16;99286.98;;;7.10;100.00
64632;BME280;58358;50.936;0.246;2023-03-13T01:08:40;99273.45;;;7.27;100.00
64632;BME280;58358;50.936;0.246;2023-03-13T01:11:07;99302.19;;;6.90;100.00
64632;BME280;58358;50.936;0.246;2023-03-13T01:13:31;99292.53;;;7.05;100.00
64632;BME280;58358;50.936;0.246;2023-03-13T01:15:55;99287.35;;;6.79;100.00
64632;BME280;58358;50.936;0.246;2023-03-13T01:18:21;99298.51;;;6.99;100.00
64632;BME280;58358;50.936;0.246;2023-03-13T01:20:46;99291.46;;;7.22;100.00
64632;BME280;58358;50.936;0.246;2023-03-13T01:23:12;99302.57;;;7.65;100.00
64632;BME280;58358;50.936;0.246;2023-03-13T01:25:38;99300.75;;;7.59;100.00
64632;BME280;58358;50.936;0.246;2023-03-13T01:28:03;99292.64;;;7.35;100.00
64632;BME280;58358;50.936;0.246;2023-03-13T01:30:28;99290.76;;;7.35;100.00
64632;BME280;58358;50.936;0.246;2023-03-13T01:32:53;99284.41;;;6.98;100.00
64632;BME280;58358;50.936;0.246;2023-03-13T01:35:18;99274.42;;;7.18;100.00
64632;BME280;58358;50.936;0.246;2023-03-13T01:37:44;99272.58;;;7.03;100.00
64632;BME280;58358;50.936;0.246;2023-03-13T01:40:11;99253.89;;;6.78;100.00
64632;BME280;58358;50.936;0.246;2023-03-13T01:42:48;99250.10;;;7.26;100.00
64632;BME280;58358;50.936;0.246;2023-03-13T01:44:59;99257.06;;;6.90;100.00
64632;BME280;58358;50.936;0.246;2023-03-13T01:47:24;99246.58;;;7.34;100.00
64632;BME280;58358;50.936;0.246;2023-03-13T01:49:51;99250.48;;;7.50;100.00
64632;BME280;58358;50.936;0.246;2023-03-13T01:52:17;99241.46;;;7.35;100.00
64632;BME280;58358;50.936;0.246;2023-03-13T01:54:42;99248.94;;;7.12;100.00
64632;BME280;58358;50.936;0.246;2023-03-13T01:57:09;99232.21;;;7.34;100.00
64632;BME280;58358;50.936;0.246;2023-03-13T01:59:33;99236.74;;;7.42;100.00
64632;BME280;58358;50.936;0.246;2023-03-13T02:01:59;99222.79;;;7.41;100.00
64632;BME280;58358;50.936;0.246;2023-03-13T02:04:23;99217.53;;;7.41;100.00
64632;BME280;58358;50.936;0.246;2023-03-13T02:06:50;99217.51;;;7.59;100.00
64632;BME280;58358;50.936;0.246;2023-03-13T02:09:17;99222.18;;;7.66;100.00
64632;BME280;58358;50.936;0.246;2023-03-13T02:11:46;99221.73;;;7.49;100.00
64632;BME280;58358;50.936;0.246;2023-03-13T02:14:04;99235.01;;;7.31;100.00
64632;BME280;58358;50.936;0.246;2023-03-13T02:16:32;99229.96;;;7.39;100.00
64632;BME280;58358;50.936;0.246;2023-03-13T02:18:56;99225.84;;;7.45;100.00
64632;BME280;58358;50.936;0.246;2023-03-13T02:21:30;99224.69;;;7.28;100.00
64632;BME280;58358;50.936;0.246;2023-03-13T02:23:54;99224.69;;;7.68;100.00
64632;BME280;58358;50.936;0.246;2023-03-13T02:26:12;99215.03;;;7.62;100.00
64632;BME280;58358;50.936;0.246;2023-03-13T02:28:38;99194.64;;;7.67;100.00
64632;BME280;58358;50.936;0.246;2023-03-13T02:31:05;99200.19;;;7.72;100.00
64632;BME280;58358;50.936;0.246;2023-03-13T02:33:31;99185.87;;;7.90;100.00
64632;BME280;58358;50.936;0.246;2023-03-13T02:35:55;99183.85;;;7.96;100.00
64632;BME280;58358;50.936;0.246;2023-03-13T02:38:23;99172.08;;;7.78;100.00
64632;BME280;58358;50.936;0.246;2023-03-13T02:40:48;99178.31;;;7.87;100.00
64632;BME280;58358;50.936;0.246;2023-03-13T02:43:15;99163.24;;;7.66;100.00
64632;BME280;58358;50.936;0.246;2023-03-13T02:45:38;99165.86;;;7.86;100.00
64632;BME280;58358;50.936;0.246;2023-03-13T02:48:03;99165.25;;;7.81;100.00
64632;BME280;58358;50.936;0.246;2023-03-13T02:50:29;99148.42;;;7.92;100.00
64632;BME280;58358;50.936;0.246;2023-03-13T02:52:56;99154.56;;;7.48;100.00
64632;BME280;58358;50.936;0.246;2023-03-13T02:55:23;99152.43;;;7.59;100.00
64632;BME280;58358;50.936;0.246;2023-03-13T02:57:45;99139.23;;;7.45;100.00
64632;BME280;58358;50.936;0.246;2023-03-13T03:00:11;99139.49;;;7.58;100.00
64632;BME280;58358;50.936;0.246;2023-03-13T03:02:36;99130.04;;;7.66;100.00
64632;BME280;58358;50.936;0.246;2023-03-13T03:05:01;99114.21;;;7.80;100.00
64632;BME280;58358;50.936;0.246;2023-03-13T03:07:26;99121.69;;;6.98;100.00
64632;BME280;58358;50.936;0.246;2023-03-13T03:09:51;99122.62;;;7.19;100.00
64632;BME280;58358;50.936;0.246;2023-03-13T03:12:17;99113.80;;;7.26;100.00
64632;BME280;58358;50.936;0.246;2023-03-13T03:14:43;99116.47;;;6.89;100.00
64632;BME280;58358;50.936;0.246;2023-03-13T03:17:08;99107.66;;;6.84;100.00
64632;BME280;58358;50.936;0.246;2023-03-13T03:19:33;99112.17;;;7.07;100.00
64632;BME280;58358;50.936;0.246;2023-03-13T03:21:59;99105.42;;;6.74;100.00
64632;BME280;58358;50.936;0.246;2023-03-13T03:24:24;99098.01;;;6.80;100.00
64632;BME280;58358;50.936;0.246;2023-03-13T03:26:49;99103.70;;;7.19;100.00
64632;BME280;58358;50.936;0.246;2023-03-13T03:29:14;99103.83;;;6.96;100.00
64632;BME280;58358;50.936;0.246;2023-03-13T03:31:40;99096.28;;;6.62;100.00
64632;BME280;58358;50.936;0.246;2023-03-13T03:34:05;99097.99;;;7.18;100.00
64632;BME280;58358;50.936;0.246;2023-03-13T03:36:31;99094.53;;;6.88;100.00
64632;BME280;58358;50.936;0.246;2023-03-13T03:38:57;99097.30;;;6.47;100.00
64632;BME280;58358;50.936;0.246;2023-03-13T03:41:22;99081.95;;;7.02;100.00
64632;BME280;58358;50.936;0.246;2023-03-13T03:43:48;99060.12;;;6.76;100.00
64632;BME280;58358;50.936;0.246;2023-03-13T03:46:14;99075.07;;;6.44;100.00
64632;BME280;58358;50.936;0.246;2023-03-13T03:48:39;99065.68;;;6.91;100.00
64632;BME280;58358;50.936;0.246;2023-03-13T03:51:05;99087.57;;;7.40;100.00
64632;BME280;58358;50.936;0.246;2023-03-13T03:53:30;99084.29;;;6.85;100.00
64632;BME280;58358;50.936;0.246;2023-03-13T03:55:56;99071.23;;;7.03;100.00
64632;BME280;58358;50.936;0.246;2023-03-13T03:58:21;99087.52;;;6.97;100.00
64632;BME280;58358;50.936;0.246;2023-03-13T04:00:47;99054.49;;;6.66;100.00
64632;BME280;58358;50.936;0.246;2023-03-13T04:03:13;99095.40;;;7.11;100.00
64632;BME280;58358;50.936;0.246;2023-03-13T04:05:38;99077.95;;;6.84;100.00
64632;BME280;58358;50.936;0.246;2023-03-13T04:08:03;99085.06;;;6.89;100.00
64632;BME280;58358;50.936;0.246;2023-03-13T04:10:28;99099.54;;;7.05;100.00
64632;BME280;58358;50.936;0.246;2023-03-13T04:12:53;99098.50;;;6.86;100.00
64632;BME280;58358;50.936;0.246;2023-03-13T04:15:19;99099.89;;;6.96;100.00
64632;BME280;58358;50.936;0.246;2023-03-13T04:17:44;99103.78;;;6.68;100.00
64632;BME280;58358;50.936;0.246;2023-03-13T04:20:11;99092.03;;;7.16;100.00
64632;BME280;58358;50.936;0.246;2023-03-13T04:22:34;99108.21;;;6.53;100.00
64632;BME280;58358;50.936;0.246;2023-03-13T04:25:00;99099.69;;;6.88;100.00
64632;BME280;58358;50.936;0.246;2023-03-13T04:27:25;99092.93;;;6.45;100.00
64632;BME280;58358;50.936;0.246;2023-03-13T04:29:51;99100.81;;;6.68;100.00
64632;BME280;58358;50.936;0.246;2023-03-13T04:32:17;99117.05;;;6.68;100.00
64632;BME280;58358;50.936;0.246;2023-03-13T04:34:42;99108.10;;;6.81;100.00
64632;BME280;58358;50.936;0.246;2023-03-13T04:37:08;99097.42;;;6.62;100.00
64632;BME280;58358;50.936;0.246;2023-03-13T04:39:33;99095.94;;;6.64;100.00
64632;BME280;58358;50.936;0.246;2023-03-13T04:41:58;99096.76;;;6.72;100.00
64632;BME280;58358;50.936;0.246;2023-03-13T04:44:24;99108.64;;;6.75;100.00
64632;BME280;58358;50.936;0.246;2023-03-13T04:46:50;99100.29;;;7.00;100.00
64632;BME280;58358;50.936;0.246;2023-03-13T04:49:16;99090.86;;;6.49;100.00
64632;BME280;58358;50.936;0.246;2023-03-13T04:51:41;99094.31;;;6.66;100.00
64632;BME280;58358;50.936;0.246;2023-03-13T04:54:07;99088.17;;;6.83;100.00
64632;BME280;58358;50.936;0.246;2023-03-13T04:56:32;99088.22;;;6.67;100.00
64632;BME280;58358;50.936;0.246;2023-03-13T04:58:57;99074.03;;;6.84;100.00
64632;BME280;58358;50.936;0.246;2023-03-13T05:01:22;99071.23;;;6.85;100.00
64632;BME280;58358;50.936;0.246;2023-03-13T05:03:48;99059.06;;;6.56;100.00
64632;BME280;58358;50.936;0.246;2023-03-13T05:06:14;99075.40;;;6.96;100.00
64632;BME280;58358;50.936;0.246;2023-03-13T05:08:39;99075.11;;;6.46;100.00
64632;BME280;58358;50.936;0.246;2023-03-13T05:11:05;99057.77;;;6.67;100.00
64632;BME280;58358;50.936;0.246;2023-03-13T05:13:30;99055.89;;;6.96;100.00
64632;BME280;58358;50.936;0.246;2023-03-13T05:15:55;99059.67;;;6.56;100.00
64632;BME280;58358;50.936;0.246;2023-03-13T05:18:21;99050.26;;;7.32;100.00
64632;BME280;58358;50.936;0.246;2023-03-13T05:20:47;99047.94;;;7.12;100.00
64632;BME280;58358;50.936;0.246;2023-03-13T05:23:12;99043.45;;;7.14;100.00
64632;BME280;58358;50.936;0.246;2023-03-13T05:25:38;99043.76;;;7.37;100.00
64632;BME280;58358;50.936;0.246;2023-03-13T05:28:03;99037.77;;;7.18;100.00
64632;BME280;58358;50.936;0.246;2023-03-13T05:30:28;99042.37;;;7.14;100.00
64632;BME280;58358;50.936;0.246;2023-03-13T05:32:53;99036.25;;;7.06;100.00
64632;BME280;58358;50.936;0.246;2023-03-13T05:35:18;99040.77;;;7.09;100.00
64632;BME280;58358;50.936;0.246;2023-03-13T05:37:44;99041.14;;;6.68;100.00
64632;BME280;58358;50.936;0.246;2023-03-13T05:40:11;99032.15;;;6.45;100.00
64632;BME280;58358;50.936;0.246;2023-03-13T05:42:35;99039.51;;;6.81;100.00
64632;BME280;58358;50.936;0.246;2023-03-13T05:45:00;99044.92;;;6.65;100.00
64632;BME280;58358;50.936;0.246;2023-03-13T05:47:26;99029.80;;;6.68;100.00
64632;BME280;58358;50.936;0.246;2023-03-13T05:49:52;99026.13;;;6.83;100.00
64632;BME280;58358;50.936;0.246;2023-03-13T05:52:17;99037.89;;;7.15;100.00
64632;BME280;58358;50.936;0.246;2023-03-13T05:54:43;99030.89;;;6.92;100.00
64632;BME280;58358;50.936;0.246;2023-03-13T05:57:09;99041.60;;;6.63;100.00
64632;BME280;58358;50.936;0.246;2023-03-13T05:59:34;99034.59;;;6.96;100.00
64632;BME280;58358;50.936;0.246;2023-03-13T06:01:59;99035.66;;;6.80;100.00
64632;BME280;58358;50.936;0.246;2023-03-13T06:04:25;99033.44;;;6.82;100.00
64632;BME280;58358;50.936;0.246;2023-03-13T06:06:50;99023.07;;;6.91;100.00
64632;BME280;58358;50.936;0.246;2023-03-13T06:09:15;99024.84;;;7.01;100.00
64632;BME280;58358;50.936;0.246;2023-03-13T06:11:41;99020.61;;;6.82;100.00
64632;BME280;58358;50.936;0.246;2023-03-13T06:14:06;99018.90;;;7.09;100.00
64632;BME280;58358;50.936;0.246;2023-03-13T06:16:33;99008.50;;;7.11;100.00
64632;BME280;58358;50.936;0.246;2023-03-13T06:18:57;99008.33;;;6.68;100.00
64632;BME280;58358;50.936;0.246;2023-03-13T06:21:23;99014.89;;;7.28;100.00
64632;BME280;58358;50.936;0.246;2023-03-13T06:23:48;99011.96;;;6.69;100.00
64632;BME280;58358;50.936;0.246;2023-03-13T06:26:13;99003.03;;;6.60;100.00
64632;BME280;58358;50.936;0.246;2023-03-13T06:28:39;98999.54;;;6.67;100.00
64632;BME280;58358;50.936;0.246;2023-03-13T06:31:06;98993.07;;;6.81;100.00
64632;BME280;58358;50.936;0.246;2023-03-13T06:33:30;99004.28;;;6.99;100.00
64632;BME280;58358;50.936;0.246;2023-03-13T06:35:56;99010.51;;;6.95;100.00
64632;BME280;58358;50.936;0.246;2023-03-13T06:38:20;99008.52;;;6.89;100.00
64632;BME280;58358;50.936;0.246;2023-03-13T06:40:46;99005.34;;;6.70;100.00
64632;BME280;58358;50.936;0.246;2023-03-13T06:43:12;99002.53;;;6.69;100.00
64632;BME280;58358;50.936;0.246;2023-03-13T06:45:38;98997.71;;;6.81;100.00
64632;BME280;58358;50.936;0.246;2023-03-13T06:48:03;99011.94;;;6.91;100.00
64632;BME280;58358;50.936;0.246;2023-03-13T06:50:28;98989.67;;;7.12;100.00
64632;BME280;58358;50.936;0.246;2023-03-13T06:52:53;98998.31;;;7.06;100.00
64632;BME280;58358;50.936;0.246;2023-03-13T06:55:18;98988.04;;;6.87;100.00
64632;BME280;58358;50.936;0.246;2023-03-13T06:57:43;98988.38;;;6.82;100.00
64632;BME280;58358;50.936;0.246;2023-03-13T07:00:10;98985.70;;;6.91;100.00
64632;BME280;58358;50.936;0.246;2023-03-13T07:02:34;98984.00;;;6.74;100.00
64632;BME280;58358;50.936;0.246;2023-03-13T07:04:59;98992.10;;;7.12;100.00
64632;BME280;58358;50.936;0.246;2023-03-13T07:07:24;98984.74;;;7.12;100.00
64632;BME280;58358;50.936;0.246;2023-03-13T07:09:50;98983.08;;;6.46;100.00
64632;BME280;58358;50.936;0.246;2023-03-13T07:12:15;98972.05;;;7.00;100.00
64632;BME280;58358;50.936;0.246;2023-03-13T07:14:41;98975.38;;;6.94;100.00
64632;BME280;58358;50.936;0.246;2023-03-13T07:17:06;98972.89;;;7.11;100.00
64632;BME280;58358;50.936;0.246;2023-03-13T07:19:31;98991.97;;;7.40;100.00
64632;BME280;58358;50.936;0.246;2023-03-13T07:21:57;98991.16;;;6.91;100.00
64632;BME280;58358;50.936;0.246;2023-03-13T07:24:23;98983.88;;;7.13;100.00
64632;BME280;58358;50.936;0.246;2023-03-13T07:26:48;98979.38;;;7.23;100.00
64632;BME280;58358;50.936;0.246;2023-03-13T07:29:14;98989.45;;;7.14;100.00
64632;BME280;58358;50.936;0.246;2023-03-13T07:31:39;98985.89;;;7.24;100.00
64632;BME280;58358;50.936;0.246;2023-03-13T07:34:04;98984.42;;;7.36;100.00
64632;BME280;58358;50.936;0.246;2023-03-13T07:36:30;98978.42;;;7.35;100.00
64632;BME280;58358;50.936;0.246;2023-03-13T07:38:56;98980.92;;;7.16;100.00
64632;BME280;58358;50.936;0.246;2023-03-13T07:41:21;98978.79;;;7.14;100.00
64632;BME280;58358;50.936;0.246;2023-03-13T07:43:46;98974.98;;;7.38;100.00
64632;BME280;58358;50.936;0.246;2023-03-13T07:46:12;98981.83;;;7.24;100.00
64632;BME280;58358;50.936;0.246;2023-03-13T07:48:38;98981.14;;;7.51;100.00
64632;BME280;58358;50.936;0.246;2023-03-13T07:51:02;98978.27;;;7.41;100.00
64632;BME280;58358;50.936;0.246;2023-03-13T07:53:28;98992.34;;;7.63;100.00
64632;BME280;58358;50.936;0.246;2023-03-13T07:55:55;98981.43;;;7.78;100.00
64632;BME280;58358;50.936;0.246;2023-03-13T07:58:19;98986.83;;;7.51;100.00
64632;BME280;58358;50.936;0.246;2023-03-13T08:00:44;98988.16;;;7.29;100.00
64632;BME280;58358;50.936;0.246;2023-03-13T08:03:09;98980.37;;;7.43;100.00
64632;BME280;58358;50.936;0.246;2023-03-13T08:05:34;98977.92;;;7.16;100.00
64632;BME280;58358;50.936;0.246;2023-03-13T08:07:59;98976.85;;;6.68;100.00
64632;BME280;58358;50.936;0.246;2023-03-13T08:10:25;98970.16;;;7.26;100.00
64632;BME280;58358;50.936;0.246;2023-03-13T08:12:51;98952.64;;;7.47;100.00
64632;BME280;58358;50.936;0.246;2023-03-13T08:15:16;98977.57;;;7.30;100.00
64632;BME280;58358;50.936;0.246;2023-03-13T08:17:42;98984.32;;;7.10;100.00
64632;BME280;58358;50.936;0.246;2023-03-13T08:20:09;98982.14;;;7.36;100.00
64632;BME280;58358;50.936;0.246;2023-03-13T08:22:33;98968.93;;;7.42;100.00
64632;BME280;58358;50.936;0.246;2023-03-13T08:24:58;98968.93;;;6.84;100.00
64632;BME280;58358;50.936;0.246;2023-03-13T08:27:23;98962.72;;;7.31;100.00
64632;BME280;58358;50.936;0.246;2023-03-13T08:29:49;98951.30;;;7.51;100.00
64632;BME280;58358;50.936;0.246;2023-03-13T08:32:14;98952.93;;;7.16;100.00
64632;BME280;58358;50.936;0.246;2023-03-13T08:34:40;98959.52;;;7.74;100.00
64632;BME280;58358;50.936;0.246;2023-03-13T08:37:06;98960.16;;;7.44;100.00
64632;BME280;58358;50.936;0.246;2023-03-13T08:39:31;98943.42;;;7.28;100.00
64632;BME280;58358;50.936;0.246;2023-03-13T08:41:56;98940.92;;;7.20;100.00
64632;BME280;58358;50.936;0.246;2023-03-13T08:44:22;98939.29;;;7.57;100.00
64632;BME280;58358;50.936;0.246;2023-03-13T08:46:48;98940.33;;;7.29;100.00
64632;BME280;58358;50.936;0.246;2023-03-13T08:49:13;98940.00;;;7.32;100.00
64632;BME280;58358;50.936;0.246;2023-03-13T08:51:39;98933.95;;;7.77;100.00
64632;BME280;58358;50.936;0.246;2023-03-13T08:54:05;98933.80;;;7.51;100.00
64632;BME280;58358;50.936;0.246;2023-03-13T08:56:31;98926.01;;;7.48;100.00
64632;BME280;58358;50.936;0.246;2023-03-13T08:58:57;98917.40;;;7.63;100.00
64632;BME280;58358;50.936;0.246;2023-03-13T09:01:22;98915.94;;;7.74;100.00
64632;BME280;58358;50.936;0.246;2023-03-13T09:03:46;98902.88;;;7.83;100.00
64632;BME280;58358;50.936;0.246;2023-03-13T09:06:12;98913.00;;;7.49;100.00
64632;BME280;58358;50.936;0.246;2023-03-13T09:08:38;98908.01;;;8.07;100.00
64632;BME280;58358;50.936;0.246;2023-03-13T09:11:04;98908.50;;;7.70;100.00
64632;BME280;58358;50.936;0.246;2023-03-13T09:13:30;98932.35;;;7.92;100.00
64632;BME280;58358;50.936;0.246;2023-03-13T09:15:55;98895.43;;;7.63;100.00
64632;BME280;58358;50.936;0.246;2023-03-13T09:18:19;98906.21;;;7.73;100.00
64632;BME280;58358;50.936;0.246;2023-03-13T09:20:44;98918.34;;;7.71;100.00
64632;BME280;58358;50.936;0.246;2023-03-13T09:23:09;98893.80;;;7.69;100.00
64632;BME280;58358;50.936;0.246;2023-03-13T09:25:37;98921.52;;;7.88;100.00
64632;BME280;58358;50.936;0.246;2023-03-13T09:28:00;98934.28;;;7.91;100.00
64632;BME280;58358;50.936;0.246;2023-03-13T09:30:25;98919.40;;;7.86;100.00
64632;BME280;58358;50.936;0.246;2023-03-13T09:32:51;98934.64;;;8.19;100.00
64632;BME280;58358;50.936;0.246;2023-03-13T09:35:16;98924.49;;;8.05;100.00
64632;BME280;58358;50.936;0.246;2023-03-13T09:37:42;98927.78;;;7.61;100.00
64632;BME280;58358;50.936;0.246;2023-03-13T09:40:12;98925.07;;;7.93;100.00
64632;BME280;58358;50.936;0.246;2023-03-13T09:42:39;98924.18;;;8.43;99.44
64632;BME280;58358;50.936;0.246;2023-03-13T09:45:02;98920.97;;;8.13;100.00
64632;BME280;58358;50.936;0.246;2023-03-13T09:47:28;98939.25;;;8.47;99.67
64632;BME280;58358;50.936;0.246;2023-03-13T09:49:52;98939.57;;;8.24;100.00
64632;BME280;58358;50.936;0.246;2023-03-13T09:52:16;98943.70;;;8.40;99.44
64632;BME280;58358;50.936;0.246;2023-03-13T09:54:42;98952.37;;;8.48;98.26
64632;BME280;58358;50.936;0.246;2023-03-13T09:57:11;98942.16;;;8.87;97.69
64632;BME280;58358;50.936;0.246;2023-03-13T09:59:36;98940.26;;;8.43;97.87
64632;BME280;58358;50.936;0.246;2023-03-13T10:01:57;98934.44;;;8.66;98.33
64632;BME280;58358;50.936;0.246;2023-03-13T10:04:27;98950.12;;;8.72;97.23
64632;BME280;58358;50.936;0.246;2023-03-13T10:06:46;98962.55;;;8.87;98.33
64632;BME280;58358;50.936;0.246;2023-03-13T10:09:16;98947.35;;;8.67;98.26
64632;BME280;58358;50.936;0.246;2023-03-13T10:11:40;98937.22;;;8.48;98.28
64632;BME280;58358;50.936;0.246;2023-03-13T10:14:08;98951.00;;;8.68;97.95
64632;BME280;58358;50.936;0.246;2023-03-13T10:16:31;98943.58;;;8.84;97.38
64632;BME280;58358;50.936;0.246;2023-03-13T10:18:55;98951.56;;;8.49;97.00
64632;BME280;58358;50.936;0.246;2023-03-13T10:21:19;98945.81;;;9.24;96.34
64632;BME280;58358;50.936;0.246;2023-03-13T10:23:48;98954.55;;;9.26;95.18
64632;BME280;58358;50.936;0.246;2023-03-13T10:26:14;98938.80;;;9.19;95.37
64632;BME280;58358;50.936;0.246;2023-03-13T10:28:33;98948.21;;;9.80;93.81
64632;BME280;58358;50.936;0.246;2023-03-13T10:31:04;98951.05;;;10.18;91.06
64632;BME280;58358;50.936;0.246;2023-03-13T10:33:25;98960.17;;;9.70;91.58
64632;BME280;58358;50.936;0.246;2023-03-13T10:36:01;98947.05;;;9.02;93.86
64632;BME280;58358;50.936;0.246;2023-03-13T10:38:18;98935.51;;;8.54;94.05
64632;BME280;58358;50.936;0.246;2023-03-13T10:40:40;98932.17;;;8.39;94.20
64632;BME280;58358;50.936;0.246;2023-03-13T10:43:12;98939.68;;;8.55;94.00
64632;BME280;58358;50.936;0.246;2023-03-13T10:45:33;98935.04;;;9.19;92.77
64632;BME280;58358;50.936;0.246;2023-03-13T10:47:59;98930.91;;;9.57;90.97
64632;BME280;58358;50.936;0.246;2023-03-13T10:50:24;98926.47;;;9.23;91.16
64632;BME280;58358;50.936;0.246;2023-03-13T10:52:47;98924.00;;;9.56;89.88
64632;BME280;58358;50.936;0.246;2023-03-13T10:55:15;98916.87;;;9.50;88.76
64632;BME280;58358;50.936;0.246;2023-03-13T10:57:40;98935.53;;;9.84;88.05
64632;BME280;58358;50.936;0.246;2023-03-13T11:02:33;98937.10;;;9.45;88.94
64632;BME280;58358;50.936;0.246;2023-03-13T11:04:54;98933.54;;;9.37;88.75
64632;BME280;58358;50.936;0.246;2023-03-13T11:07:25;98922.13;;;8.78;92.32
64632;BME280;58358;50.936;0.246;2023-03-13T11:09:57;98926.96;;;8.87;91.98
64632;BME280;58358;50.936;0.246;2023-03-13T11:12:14;98939.96;;;9.58;90.47
64632;BME280;58358;50.936;0.246;2023-03-13T11:14:36;98925.63;;;9.20;91.56
64632;BME280;58358;50.936;0.246;2023-03-13T11:17:07;98926.87;;;9.40;90.88
64632;BME280;58358;50.936;0.246;2023-03-13T11:19:33;98922.88;;;9.07;92.54
64632;BME280;58358;50.936;0.246;2023-03-13T11:22:06;98909.87;;;8.71;93.95
64632;BME280;58358;50.936;0.246;2023-03-13T11:24:23;98899.77;;;8.85;93.07
64632;BME280;58358;50.936;0.246;2023-03-13T11:26:47;98902.81;;;9.37;92.08
64632;BME280;58358;50.936;0.246;2023-03-13T11:29:15;98918.36;;;9.57;92.02
64632;BME280;58358;50.936;0.246;2023-03-13T11:31:38;98914.18;;;9.04;93.30
64632;BME280;58358;50.936;0.246;2023-03-13T11:34:04;98897.49;;;8.99;93.76
64632;BME280;58358;50.936;0.246;2023-03-13T11:36:32;98906.75;;;9.00;93.29
64632;BME280;58358;50.936;0.246;2023-03-13T11:38:53;98889.88;;;9.49;91.75
64632;BME280;58358;50.936;0.246;2023-03-13T11:41:29;98904.33;;;9.12;92.82
64632;BME280;58358;50.936;0.246;2023-03-13T11:43:49;98895.45;;;9.15;93.05
64632;BME280;58358;50.936;0.246;2023-03-13T11:46:21;98880.65;;;9.14;92.53
64632;BME280;58358;50.936;0.246;2023-03-13T11:48:44;98898.86;;;9.91;90.63
64632;BME280;58358;50.936;0.246;2023-03-13T11:51:01;98888.66;;;10.35;87.58
64632;BME280;58358;50.936;0.246;2023-03-13T11:53:37;98899.69;;;9.83;87.62
64632;BME280;58358;50.936;0.246;2023-03-13T11:55:55;98888.87;;;9.68;87.49
64632;BME280;58358;50.936;0.246;2023-03-13T11:58:29;98890.39;;;9.37;88.10
64632;BME280;58358;50.936;0.246;2023-03-13T12:00:43;98882.48;;;9.19;89.01
64632;BME280;58358;50.936;0.246;2023-03-13T12:03:10;98879.70;;;9.10;88.97
64632;BME280;58358;50.936;0.246;2023-03-13T12:05:36;98879.77;;;9.50;89.01
64632;BME280;58358;50.936;0.246;2023-03-13T12:07:59;98877.13;;;9.13;90.33
64632;BME280;58358;50.936;0.246;2023-03-13T12:10:25;98873.10;;;9.22;89.10
64632;BME280;58358;50.936;0.246;2023-03-13T12:12:48;98864.10;;;9.29;88.70
64632;BME280;58358;50.936;0.246;2023-03-13T12:15:17;98869.91;;;9.67;86.87
64632;BME280;58358;50.936;0.246;2023-03-13T12:17:39;98869.20;;;9.88;85.50
64632;BME280;58358;50.936;0.246;2023-03-13T12:20:05;98865.62;;;9.80;85.70
64632;BME280;58358;50.936;0.246;2023-03-13T12:22:30;98860.75;;;9.91;83.36
64632;BME280;58358;50.936;0.246;2023-03-13T12:24:56;98884.61;;;10.44;82.63
64632;BME280;58358;50.936;0.246;2023-03-13T12:27:23;98868.53;;;9.72;84.61
64632;BME280;58358;50.936;0.246;2023-03-13T12:29:50;98874.65;;;9.41;86.03
64632;BME280;58358;50.936;0.246;2023-03-13T12:32:11;98872.73;;;9.86;85.72
64632;BME280;58358;50.936;0.246;2023-03-13T12:34:40;98867.05;;;9.59;84.43
64632;BME280;58358;50.936;0.246;2023-03-13T12:37:07;98856.12;;;9.82;85.83
64632;BME280;58358;50.936;0.246;2023-03-13T12:39:30;98871.10;;;9.86;85.54
64632;BME280;58358;50.936;0.246;2023-03-13T12:42:00;98857.15;;;9.69;86.49
64632;BME280;58358;50.936;0.246;2023-03-13T12:44:18;98854.78;;;10.01;84.89
64632;BME280;58358;50.936;0.246;2023-03-13T12:46:44;98860.66;;;10.30;84.21
64632;BME280;58358;50.936;0.246;2023-03-13T12:51:41;98850.12;;;9.64;86.91
64632;BME280;58358;50.936;0.246;2023-03-13T12:54:05;98853.80;;;9.69;85.21
64632;BME280;58358;50.936;0.246;2023-03-13T12:56:32;98841.02;;;10.10;83.99